sensor_id;sensor_type;location;lat;lon;timestamp;P1;durP1;ratioP1;P2;durP2;ratioP2
25381;SDS011;16307;42.896;20.874;2022-11-14T00:00:28;47.22;;;25.02;;
25381;SDS011;16307;42.896;20.874;2022-11-14T00:03:33;47.55;;;23.42;;
25381;SDS011;16307;42.896;20.874;2022-11-14T00:06:38;46.70;;;22.98;;
25381;SDS011;16307;42.896;20.874;2022-11-14T00:09:43;42.63;;;20.75;;
25381;SDS011;16307;42.896;20.874;2022-11-14T00:12:48;39.88;;;21.10;;
25381;SDS011;16307;42.896;20.874;2022-11-14T00:15:52;40.35;;;20.25;;
25381;SDS011;16307;42.896;20.874;2022-11-14T00:18:57;41.35;;;20.55;;
25381;SDS011;16307;42.896;20.874;2022-11-14T00:22:02;41.97;;;21.40;;
25381;SDS011;16307;42.896;20.874;2022-11-14T00:25:06;39.35;;;20.60;;
25381;SDS011;16307;42.896;20.874;2022-11-14T00:28:11;41.38;;;21.75;;
25381;SDS011;16307;42.896;20.874;2022-11-14T00:31:16;46.10;;;22.55;;
25381;SDS011;16307;42.896;20.874;2022-11-14T00:34:21;39.45;;;20.67;;
25381;SDS011;16307;42.896;20.874;2022-11-14T00:37:26;41.83;;;21.38;;
25381;SDS011;16307;42.896;20.874;2022-11-14T00:40:31;48.35;;;23.33;;
25381;SDS011;16307;42.896;20.874;2022-11-14T00:43:36;52.88;;;27.00;;
25381;SDS011;16307;42.896;20.874;2022-11-14T00:46:41;42.33;;;23.27;;
25381;SDS011;16307;42.896;20.874;2022-11-14T00:49:46;40.20;;;20.25;;
25381;SDS011;16307;42.896;20.874;2022-11-14T00:52:50;39.15;;;18.52;;
25381;SDS011;16307;42.896;20.874;2022-11-14T00:55:55;34.88;;;18.23;;
25381;SDS011;16307;42.896;20.874;2022-11-14T00:59:00;34.67;;;17.88;;
25381;SDS011;16307;42.896;20.874;2022-11-14T01:02:05;37.00;;;18.77;;
25381;SDS011;16307;42.896;20.874;2022-11-14T01:05:09;33.65;;;17.15;;
25381;SDS011;16307;42.896;20.874;2022-11-14T01:08:15;33.95;;;17.55;;
25381;SDS011;16307;42.896;20.874;2022-11-14T01:11:21;36.40;;;18.48;;
25381;SDS011;16307;42.896;20.874;2022-11-14T01:14:26;32.65;;;17.65;;
25381;SDS011;16307;42.896;20.874;2022-11-14T01:17:31;38.35;;;18.83;;
25381;SDS011;16307;42.896;20.874;2022-11-14T01:20:39;36.75;;;18.65;;
25381;SDS011;16307;42.896;20.874;2022-11-14T01:23:47;32.53;;;17.00;;
25381;SDS011;16307;42.896;20.874;2022-11-14T01:26:55;30.20;;;16.92;;
25381;SDS011;16307;42.896;20.874;2022-11-14T01:30:00;32.20;;;17.13;;
25381;SDS011;16307;42.896;20.874;2022-11-14T01:33:04;30.95;;;16.50;;
25381;SDS011;16307;42.896;20.874;2022-11-14T01:36:09;33.20;;;18.23;;
25381;SDS011;16307;42.896;20.874;2022-11-14T01:39:14;40.80;;;21.20;;
25381;SDS011;16307;42.896;20.874;2022-11-14T01:42:19;46.97;;;22.80;;
25381;SDS011;16307;42.896;20.874;2022-11-14T01:45:46;45.22;;;26.10;;
25381;SDS011;16307;42.896;20.874;2022-11-14T01:52:15;46.75;;;23.60;;
25381;SDS011;16307;42.896;20.874;2022-11-14T01:55:30;42.78;;;25.88;;
25381;SDS011;16307;42.896;20.874;2022-11-14T01:58:36;46.05;;;26.48;;
25381;SDS011;16307;42.896;20.874;2022-11-14T02:01:47;47.42;;;26.27;;
25381;SDS011;16307;42.896;20.874;2022-11-14T02:05:02;46.00;;;26.52;;
25381;SDS011;16307;42.896;20.874;2022-11-14T02:08:13;42.20;;;24.20;;
25381;SDS011;16307;42.896;20.874;2022-11-14T02:11:18;40.70;;;23.00;;
25381;SDS011;16307;42.896;20.874;2022-11-14T02:14:22;40.75;;;22.08;;
25381;SDS011;16307;42.896;20.874;2022-11-14T02:17:27;37.92;;;21.20;;
25381;SDS011;16307;42.896;20.874;2022-11-14T02:20:38;37.33;;;21.23;;
25381;SDS011;16307;42.896;20.874;2022-11-14T02:23:47;36.15;;;20.67;;
25381;SDS011;16307;42.896;20.874;2022-11-14T02:26:52;42.22;;;20.60;;
25381;SDS011;16307;42.896;20.874;2022-11-14T02:30:07;40.58;;;21.30;;
25381;SDS011;16307;42.896;20.874;2022-11-14T02:33:16;31.95;;;19.02;;
25381;SDS011;16307;42.896;20.874;2022-11-14T02:36:20;36.55;;;19.08;;
25381;SDS011;16307;42.896;20.874;2022-11-14T02:39:25;45.75;;;22.90;;
25381;SDS011;16307;42.896;20.874;2022-11-14T02:42:31;53.35;;;24.83;;
25381;SDS011;16307;42.896;20.874;2022-11-14T02:45:36;47.47;;;25.30;;
25381;SDS011;16307;42.896;20.874;2022-11-14T02:48:41;53.72;;;25.33;;
25381;SDS011;16307;42.896;20.874;2022-11-14T02:51:45;43.30;;;24.00;;
25381;SDS011;16307;42.896;20.874;2022-11-14T02:54:50;38.45;;;21.52;;
25381;SDS011;16307;42.896;20.874;2022-11-14T02:57:57;39.15;;;19.77;;
25381;SDS011;16307;42.896;20.874;2022-11-14T03:01:03;41.47;;;19.30;;
25381;SDS011;16307;42.896;20.874;2022-11-14T03:04:24;36.20;;;17.58;;
25381;SDS011;16307;42.896;20.874;2022-11-14T03:07:30;33.78;;;17.42;;
25381;SDS011;16307;42.896;20.874;2022-11-14T03:10:36;34.35;;;16.92;;
25381;SDS011;16307;42.896;20.874;2022-11-14T03:13:41;35.88;;;19.08;;
25381;SDS011;16307;42.896;20.874;2022-11-14T03:16:45;32.30;;;17.83;;
25381;SDS011;16307;42.896;20.874;2022-11-14T03:19:50;29.17;;;16.45;;
25381;SDS011;16307;42.896;20.874;2022-11-14T03:22:55;34.58;;;16.67;;
25381;SDS011;16307;42.896;20.874;2022-11-14T03:26:00;31.88;;;17.02;;
25381;SDS011;16307;42.896;20.874;2022-11-14T03:29:06;34.88;;;18.48;;
25381;SDS011;16307;42.896;20.874;2022-11-14T03:32:11;33.40;;;17.65;;
25381;SDS011;16307;42.896;20.874;2022-11-14T03:35:15;36.08;;;17.95;;
25381;SDS011;16307;42.896;20.874;2022-11-14T03:38:20;37.20;;;19.15;;
25381;SDS011;16307;42.896;20.874;2022-11-14T03:41:27;39.80;;;19.77;;
25381;SDS011;16307;42.896;20.874;2022-11-14T03:44:32;37.97;;;19.00;;
25381;SDS011;16307;42.896;20.874;2022-11-14T03:47:37;38.33;;;19.83;;
25381;SDS011;16307;42.896;20.874;2022-11-14T03:50:42;39.45;;;19.98;;
25381;SDS011;16307;42.896;20.874;2022-11-14T03:53:47;35.47;;;20.50;;
25381;SDS011;16307;42.896;20.874;2022-11-14T03:56:51;39.55;;;19.73;;
25381;SDS011;16307;42.896;20.874;2022-11-14T03:59:56;41.80;;;21.25;;
25381;SDS011;16307;42.896;20.874;2022-11-14T04:03:01;39.30;;;18.05;;
25381;SDS011;16307;42.896;20.874;2022-11-14T04:06:06;34.58;;;18.30;;
25381;SDS011;16307;42.896;20.874;2022-11-14T04:09:11;39.70;;;17.83;;
25381;SDS011;16307;42.896;20.874;2022-11-14T04:12:15;38.30;;;18.40;;
25381;SDS011;16307;42.896;20.874;2022-11-14T04:15:20;33.97;;;16.27;;
25381;SDS011;16307;42.896;20.874;2022-11-14T04:18:25;41.53;;;17.35;;
25381;SDS011;16307;42.896;20.874;2022-11-14T04:21:31;33.47;;;15.38;;
25381;SDS011;16307;42.896;20.874;2022-11-14T04:24:36;30.13;;;15.45;;
25381;SDS011;16307;42.896;20.874;2022-11-14T04:27:41;29.15;;;15.68;;
25381;SDS011;16307;42.896;20.874;2022-11-14T04:30:46;34.10;;;15.77;;
25381;SDS011;16307;42.896;20.874;2022-11-14T04:33:51;36.42;;;15.98;;
25381;SDS011;16307;42.896;20.874;2022-11-14T04:36:56;40.50;;;16.00;;
25381;SDS011;16307;42.896;20.874;2022-11-14T04:40:01;32.30;;;16.00;;
25381;SDS011;16307;42.896;20.874;2022-11-14T04:43:06;41.40;;;16.02;;
25381;SDS011;16307;42.896;20.874;2022-11-14T04:46:11;35.38;;;17.25;;
25381;SDS011;16307;42.896;20.874;2022-11-14T04:49:16;40.78;;;17.00;;
25381;SDS011;16307;42.896;20.874;2022-11-14T04:52:21;31.10;;;15.50;;
25381;SDS011;16307;42.896;20.874;2022-11-14T04:55:26;31.73;;;15.70;;
25381;SDS011;16307;42.896;20.874;2022-11-14T04:58:31;35.25;;;15.93;;
25381;SDS011;16307;42.896;20.874;2022-11-14T05:01:36;32.10;;;15.65;;
25381;SDS011;16307;42.896;20.874;2022-11-14T05:04:41;33.65;;;16.05;;
25381;SDS011;16307;42.896;20.874;2022-11-14T05:07:47;47.90;;;15.70;;
25381;SDS011;16307;42.896;20.874;2022-11-14T05:10:52;32.60;;;15.88;;
25381;SDS011;16307;42.896;20.874;2022-11-14T05:13:57;37.15;;;16.55;;
25381;SDS011;16307;42.896;20.874;2022-11-14T05:17:01;31.83;;;16.92;;
25381;SDS011;16307;42.896;20.874;2022-11-14T05:20:06;34.75;;;15.65;;
25381;SDS011;16307;42.896;20.874;2022-11-14T05:23:19;36.67;;;16.23;;
25381;SDS011;16307;42.896;20.874;2022-11-14T05:26:24;31.92;;;16.38;;
25381;SDS011;16307;42.896;20.874;2022-11-14T05:29:29;35.45;;;15.70;;
25381;SDS011;16307;42.896;20.874;2022-11-14T05:32:34;31.95;;;15.70;;
25381;SDS011;16307;42.896;20.874;2022-11-14T05:35:39;31.67;;;15.30;;
25381;SDS011;16307;42.896;20.874;2022-11-14T05:38:44;28.65;;;14.70;;
25381;SDS011;16307;42.896;20.874;2022-11-14T05:41:48;31.45;;;15.80;;
25381;SDS011;16307;42.896;20.874;2022-11-14T05:44:53;30.75;;;15.20;;
25381;SDS011;16307;42.896;20.874;2022-11-14T05:47:58;30.23;;;15.38;;
25381;SDS011;16307;42.896;20.874;2022-11-14T05:51:03;29.50;;;14.45;;
25381;SDS011;16307;42.896;20.874;2022-11-14T05:54:09;31.30;;;14.60;;
25381;SDS011;16307;42.896;20.874;2022-11-14T05:57:14;29.88;;;14.18;;
25381;SDS011;16307;42.896;20.874;2022-11-14T06:00:19;28.00;;;13.73;;
25381;SDS011;16307;42.896;20.874;2022-11-14T06:03:24;27.50;;;13.63;;
25381;SDS011;16307;42.896;20.874;2022-11-14T06:06:28;31.33;;;15.60;;
25381;SDS011;16307;42.896;20.874;2022-11-14T06:09:33;26.08;;;13.20;;
25381;SDS011;16307;42.896;20.874;2022-11-14T06:12:39;22.15;;;12.85;;
25381;SDS011;16307;42.896;20.874;2022-11-14T06:15:44;28.33;;;13.90;;
25381;SDS011;16307;42.896;20.874;2022-11-14T06:18:51;28.08;;;13.52;;
25381;SDS011;16307;42.896;20.874;2022-11-14T06:21:56;23.77;;;12.93;;
25381;SDS011;16307;42.896;20.874;2022-11-14T06:25:01;23.65;;;13.63;;
25381;SDS011;16307;42.896;20.874;2022-11-14T06:28:06;29.90;;;15.00;;
25381;SDS011;16307;42.896;20.874;2022-11-14T06:31:11;26.02;;;14.23;;
25381;SDS011;16307;42.896;20.874;2022-11-14T06:34:16;30.40;;;14.63;;
25381;SDS011;16307;42.896;20.874;2022-11-14T06:37:21;26.25;;;13.82;;
25381;SDS011;16307;42.896;20.874;2022-11-14T06:40:26;27.80;;;13.73;;
25381;SDS011;16307;42.896;20.874;2022-11-14T06:43:31;27.88;;;13.90;;
25381;SDS011;16307;42.896;20.874;2022-11-14T06:46:40;38.53;;;15.77;;
25381;SDS011;16307;42.896;20.874;2022-11-14T06:49:44;29.63;;;14.63;;
25381;SDS011;16307;42.896;20.874;2022-11-14T06:52:49;33.17;;;15.70;;
25381;SDS011;16307;42.896;20.874;2022-11-14T06:55:55;31.75;;;14.23;;
25381;SDS011;16307;42.896;20.874;2022-11-14T06:59:01;38.63;;;18.33;;
25381;SDS011;16307;42.896;20.874;2022-11-14T07:02:10;38.90;;;17.10;;
25381;SDS011;16307;42.896;20.874;2022-11-14T07:05:20;39.65;;;17.75;;
25381;SDS011;16307;42.896;20.874;2022-11-14T07:08:25;42.90;;;18.63;;
25381;SDS011;16307;42.896;20.874;2022-11-14T07:11:30;34.53;;;17.35;;
25381;SDS011;16307;42.896;20.874;2022-11-14T07:14:35;38.22;;;19.45;;
25381;SDS011;16307;42.896;20.874;2022-11-14T07:17:40;37.55;;;18.30;;
25381;SDS011;16307;42.896;20.874;2022-11-14T07:20:45;43.65;;;19.80;;
25381;SDS011;16307;42.896;20.874;2022-11-14T07:23:50;40.65;;;18.58;;
25381;SDS011;16307;42.896;20.874;2022-11-14T07:26:55;40.45;;;18.52;;
25381;SDS011;16307;42.896;20.874;2022-11-14T07:30:00;45.53;;;19.90;;
25381;SDS011;16307;42.896;20.874;2022-11-14T07:33:05;38.65;;;19.30;;
25381;SDS011;16307;42.896;20.874;2022-11-14T07:36:11;42.03;;;18.85;;
25381;SDS011;16307;42.896;20.874;2022-11-14T07:39:17;46.03;;;20.33;;
25381;SDS011;16307;42.896;20.874;2022-11-14T07:42:21;39.92;;;19.23;;
25381;SDS011;16307;42.896;20.874;2022-11-14T07:45:27;46.38;;;20.88;;
25381;SDS011;16307;42.896;20.874;2022-11-14T07:48:32;49.88;;;22.55;;
25381;SDS011;16307;42.896;20.874;2022-11-14T07:51:38;44.80;;;22.25;;
25381;SDS011;16307;42.896;20.874;2022-11-14T07:54:43;44.53;;;22.17;;
25381;SDS011;16307;42.896;20.874;2022-11-14T07:57:51;51.85;;;21.85;;
25381;SDS011;16307;42.896;20.874;2022-11-14T08:01:00;45.40;;;22.00;;
25381;SDS011;16307;42.896;20.874;2022-11-14T08:04:06;40.38;;;21.15;;
25381;SDS011;16307;42.896;20.874;2022-11-14T08:07:11;42.45;;;21.05;;
25381;SDS011;16307;42.896;20.874;2022-11-14T08:10:16;43.92;;;21.95;;
25381;SDS011;16307;42.896;20.874;2022-11-14T08:13:21;47.67;;;22.75;;
25381;SDS011;16307;42.896;20.874;2022-11-14T08:16:36;42.90;;;21.13;;
25381;SDS011;16307;42.896;20.874;2022-11-14T08:19:41;44.83;;;21.58;;
25381;SDS011;16307;42.896;20.874;2022-11-14T08:22:46;44.50;;;20.98;;
25381;SDS011;16307;42.896;20.874;2022-11-14T08:25:51;44.08;;;22.63;;
25381;SDS011;16307;42.896;20.874;2022-11-14T08:28:56;44.80;;;21.52;;
25381;SDS011;16307;42.896;20.874;2022-11-14T08:32:01;43.97;;;22.05;;
25381;SDS011;16307;42.896;20.874;2022-11-14T08:35:06;47.42;;;23.08;;
25381;SDS011;16307;42.896;20.874;2022-11-14T08:38:11;38.30;;;20.27;;
25381;SDS011;16307;42.896;20.874;2022-11-14T08:41:16;40.15;;;20.08;;
25381;SDS011;16307;42.896;20.874;2022-11-14T08:44:21;44.10;;;21.17;;
25381;SDS011;16307;42.896;20.874;2022-11-14T08:47:26;42.40;;;19.75;;
25381;SDS011;16307;42.896;20.874;2022-11-14T08:50:31;45.58;;;21.08;;
25381;SDS011;16307;42.896;20.874;2022-11-14T08:53:36;49.90;;;23.85;;
25381;SDS011;16307;42.896;20.874;2022-11-14T08:56:41;69.78;;;29.52;;
25381;SDS011;16307;42.896;20.874;2022-11-14T08:59:45;64.78;;;30.40;;
25381;SDS011;16307;42.896;20.874;2022-11-14T09:02:50;65.05;;;30.77;;
25381;SDS011;16307;42.896;20.874;2022-11-14T09:05:55;59.17;;;28.08;;
25381;SDS011;16307;42.896;20.874;2022-11-14T09:08:59;56.70;;;26.63;;
25381;SDS011;16307;42.896;20.874;2022-11-14T09:12:04;59.90;;;27.00;;
25381;SDS011;16307;42.896;20.874;2022-11-14T09:15:09;55.67;;;22.70;;
25381;SDS011;16307;42.896;20.874;2022-11-14T09:18:14;50.72;;;24.42;;
25381;SDS011;16307;42.896;20.874;2022-11-14T09:21:19;54.72;;;26.95;;
25381;SDS011;16307;42.896;20.874;2022-11-14T09:24:24;73.53;;;31.90;;
25381;SDS011;16307;42.896;20.874;2022-11-14T09:27:29;66.57;;;32.88;;
25381;SDS011;16307;42.896;20.874;2022-11-14T09:30:34;65.22;;;30.73;;
25381;SDS011;16307;42.896;20.874;2022-11-14T09:33:40;60.30;;;29.65;;
25381;SDS011;16307;42.896;20.874;2022-11-14T09:36:45;54.10;;;26.35;;
25381;SDS011;16307;42.896;20.874;2022-11-14T09:39:50;43.65;;;23.40;;
25381;SDS011;16307;42.896;20.874;2022-11-14T09:43:01;52.50;;;28.27;;
25381;SDS011;16307;42.896;20.874;2022-11-14T09:46:19;43.03;;;24.17;;
25381;SDS011;16307;42.896;20.874;2022-11-14T09:49:31;48.53;;;25.98;;
25381;SDS011;16307;42.896;20.874;2022-11-14T09:52:40;53.03;;;25.27;;
25381;SDS011;16307;42.896;20.874;2022-11-14T09:55:49;55.47;;;28.27;;
25381;SDS011;16307;42.896;20.874;2022-11-14T09:58:54;49.90;;;28.02;;
25381;SDS011;16307;42.896;20.874;2022-11-14T10:15:53;53.72;;;28.77;;
25381;SDS011;16307;42.896;20.874;2022-11-14T10:19:15;47.05;;;26.40;;
25381;SDS011;16307;42.896;20.874;2022-11-14T10:22:42;53.35;;;26.70;;
25381;SDS011;16307;42.896;20.874;2022-11-14T10:36:04;52.50;;;27.02;;
25381;SDS011;16307;42.896;20.874;2022-11-14T10:39:17;64.05;;;28.98;;
25381;SDS011;16307;42.896;20.874;2022-11-14T10:42:30;46.60;;;24.08;;
25381;SDS011;16307;42.896;20.874;2022-11-14T10:45:40;60.53;;;32.27;;
25381;SDS011;16307;42.896;20.874;2022-11-14T10:48:48;62.83;;;32.25;;
25381;SDS011;16307;42.896;20.874;2022-11-14T10:51:58;68.53;;;33.85;;
25381;SDS011;16307;42.896;20.874;2022-11-14T10:55:11;66.18;;;36.55;;
25381;SDS011;16307;42.896;20.874;2022-11-14T10:58:18;68.03;;;33.35;;
25381;SDS011;16307;42.896;20.874;2022-11-14T11:01:34;73.07;;;35.85;;
25381;SDS011;16307;42.896;20.874;2022-11-14T11:04:40;71.90;;;37.95;;
25381;SDS011;16307;42.896;20.874;2022-11-14T11:07:46;71.22;;;35.25;;
25381;SDS011;16307;42.896;20.874;2022-11-14T11:11:31;72.75;;;38.95;;
25381;SDS011;16307;42.896;20.874;2022-11-14T11:14:36;75.05;;;37.55;;
25381;SDS011;16307;42.896;20.874;2022-11-14T11:17:54;66.63;;;33.33;;
25381;SDS011;16307;42.896;20.874;2022-11-14T11:21:10;61.85;;;32.05;;
25381;SDS011;16307;42.896;20.874;2022-11-14T11:24:29;66.53;;;32.97;;
25381;SDS011;16307;42.896;20.874;2022-11-14T11:27:37;61.75;;;31.52;;
25381;SDS011;16307;42.896;20.874;2022-11-14T11:30:55;60.88;;;32.85;;
25381;SDS011;16307;42.896;20.874;2022-11-14T11:34:10;72.18;;;35.63;;
25381;SDS011;16307;42.896;20.874;2022-11-14T11:40:44;59.38;;;30.15;;
25381;SDS011;16307;42.896;20.874;2022-11-14T11:43:55;61.03;;;31.38;;
25381;SDS011;16307;42.896;20.874;2022-11-14T11:47:07;56.92;;;27.73;;
25381;SDS011;16307;42.896;20.874;2022-11-14T11:50:13;49.00;;;27.00;;
25381;SDS011;16307;42.896;20.874;2022-11-14T11:53:37;69.65;;;33.17;;
25381;SDS011;16307;42.896;20.874;2022-11-14T11:56:44;52.70;;;27.77;;
25381;SDS011;16307;42.896;20.874;2022-11-14T11:59:53;50.53;;;27.58;;
25381;SDS011;16307;42.896;20.874;2022-11-14T12:03:03;55.60;;;28.38;;
25381;SDS011;16307;42.896;20.874;2022-11-14T12:09:18;44.63;;;26.50;;
25381;SDS011;16307;42.896;20.874;2022-11-14T12:22:40;45.28;;;22.23;;
25381;SDS011;16307;42.896;20.874;2022-11-14T12:32:50;40.60;;;22.98;;
25381;SDS011;16307;42.896;20.874;2022-11-14T12:35:57;40.40;;;21.23;;
25381;SDS011;16307;42.896;20.874;2022-11-14T12:39:04;39.60;;;23.10;;
25381;SDS011;16307;42.896;20.874;2022-11-14T12:42:09;38.47;;;22.27;;
25381;SDS011;16307;42.896;20.874;2022-11-14T12:48:45;43.90;;;22.60;;
25381;SDS011;16307;42.896;20.874;2022-11-14T12:51:50;42.78;;;22.58;;
25381;SDS011;16307;42.896;20.874;2022-11-14T12:54:54;39.40;;;20.63;;
25381;SDS011;16307;42.896;20.874;2022-11-14T13:01:10;44.00;;;24.27;;
25381;SDS011;16307;42.896;20.874;2022-11-14T13:07:41;42.47;;;24.02;;
25381;SDS011;16307;42.896;20.874;2022-11-14T13:10:54;40.40;;;21.23;;
25381;SDS011;16307;42.896;20.874;2022-11-14T13:14:00;40.95;;;23.42;;
25381;SDS011;16307;42.896;20.874;2022-11-14T13:17:24;44.88;;;24.15;;
25381;SDS011;16307;42.896;20.874;2022-11-14T13:20:59;37.15;;;20.05;;
25381;SDS011;16307;42.896;20.874;2022-11-14T13:24:28;40.60;;;21.23;;
25381;SDS011;16307;42.896;20.874;2022-11-14T13:28:42;31.48;;;18.98;;
25381;SDS011;16307;42.896;20.874;2022-11-14T13:31:47;36.72;;;20.30;;
25381;SDS011;16307;42.896;20.874;2022-11-14T13:34:53;39.63;;;20.85;;
25381;SDS011;16307;42.896;20.874;2022-11-14T13:44:57;40.58;;;20.48;;
25381;SDS011;16307;42.896;20.874;2022-11-14T13:48:21;36.22;;;21.40;;
25381;SDS011;16307;42.896;20.874;2022-11-14T13:51:40;35.67;;;20.83;;
25381;SDS011;16307;42.896;20.874;2022-11-14T13:54:47;34.97;;;21.08;;
25381;SDS011;16307;42.896;20.874;2022-11-14T14:18:04;57.08;;;29.40;;
25381;SDS011;16307;42.896;20.874;2022-11-14T14:21:26;57.35;;;28.23;;
25381;SDS011;16307;42.896;20.874;2022-11-14T14:25:04;53.80;;;28.58;;
25381;SDS011;16307;42.896;20.874;2022-11-14T14:28:21;59.20;;;30.23;;
25381;SDS011;16307;42.896;20.874;2022-11-14T14:31:37;47.63;;;28.92;;
25381;SDS011;16307;42.896;20.874;2022-11-14T14:34:43;47.33;;;26.90;;
25381;SDS011;16307;42.896;20.874;2022-11-14T14:37:51;50.15;;;25.65;;
25381;SDS011;16307;42.896;20.874;2022-11-14T14:40:57;58.88;;;27.90;;
25381;SDS011;16307;42.896;20.874;2022-11-14T14:44:01;52.88;;;28.80;;
25381;SDS011;16307;42.896;20.874;2022-11-14T14:50:41;48.13;;;27.42;;
25381;SDS011;16307;42.896;20.874;2022-11-14T14:53:52;62.88;;;31.13;;
25381;SDS011;16307;42.896;20.874;2022-11-14T14:56:57;57.90;;;30.73;;
25381;SDS011;16307;42.896;20.874;2022-11-14T15:00:07;55.08;;;29.88;;
25381;SDS011;16307;42.896;20.874;2022-11-14T15:03:21;61.90;;;32.20;;
25381;SDS011;16307;42.896;20.874;2022-11-14T15:06:28;65.07;;;31.85;;
25381;SDS011;16307;42.896;20.874;2022-11-14T15:09:35;58.25;;;30.80;;
25381;SDS011;16307;42.896;20.874;2022-11-14T15:12:40;63.45;;;31.75;;
25381;SDS011;16307;42.896;20.874;2022-11-14T15:15:45;70.22;;;33.00;;
25381;SDS011;16307;42.896;20.874;2022-11-14T15:18:53;73.13;;;36.13;;
25381;SDS011;16307;42.896;20.874;2022-11-14T15:25:24;88.82;;;38.15;;
25381;SDS011;16307;42.896;20.874;2022-11-14T15:28:30;85.75;;;38.67;;
25381;SDS011;16307;42.896;20.874;2022-11-14T15:31:36;108.30;;;47.17;;
25381;SDS011;16307;42.896;20.874;2022-11-14T15:34:40;100.53;;;49.80;;
25381;SDS011;16307;42.896;20.874;2022-11-14T15:41:34;114.47;;;54.83;;
25381;SDS011;16307;42.896;20.874;2022-11-14T15:44:40;103.63;;;53.35;;
25381;SDS011;16307;42.896;20.874;2022-11-14T15:47:46;105.82;;;51.90;;
25381;SDS011;16307;42.896;20.874;2022-11-14T15:50:54;101.70;;;49.17;;
25381;SDS011;16307;42.896;20.874;2022-11-14T15:53:59;115.35;;;53.28;;
25381;SDS011;16307;42.896;20.874;2022-11-14T15:57:12;130.93;;;58.28;;
25381;SDS011;16307;42.896;20.874;2022-11-14T16:00:17;130.43;;;57.85;;
25381;SDS011;16307;42.896;20.874;2022-11-14T16:03:23;124.38;;;55.50;;
25381;SDS011;16307;42.896;20.874;2022-11-14T16:06:28;117.35;;;53.58;;
25381;SDS011;16307;42.896;20.874;2022-11-14T16:09:34;125.97;;;53.35;;
25381;SDS011;16307;42.896;20.874;2022-11-14T16:12:40;131.30;;;52.53;;
25381;SDS011;16307;42.896;20.874;2022-11-14T16:15:45;117.72;;;54.75;;
25381;SDS011;16307;42.896;20.874;2022-11-14T16:18:50;111.20;;;51.72;;
25381;SDS011;16307;42.896;20.874;2022-11-14T16:21:57;109.55;;;52.10;;
25381;SDS011;16307;42.896;20.874;2022-11-14T16:25:10;123.88;;;53.63;;
25381;SDS011;16307;42.896;20.874;2022-11-14T16:28:20;125.95;;;54.42;;
25381;SDS011;16307;42.896;20.874;2022-11-14T16:31:25;116.88;;;53.38;;
25381;SDS011;16307;42.896;20.874;2022-11-14T16:34:30;126.47;;;54.92;;
25381;SDS011;16307;42.896;20.874;2022-11-14T16:37:35;121.75;;;54.33;;
25381;SDS011;16307;42.896;20.874;2022-11-14T16:40:42;124.63;;;59.75;;
25381;SDS011;16307;42.896;20.874;2022-11-14T16:43:47;121.90;;;56.40;;
25381;SDS011;16307;42.896;20.874;2022-11-14T16:46:52;126.45;;;57.08;;
25381;SDS011;16307;42.896;20.874;2022-11-14T16:49:57;127.85;;;57.08;;
25381;SDS011;16307;42.896;20.874;2022-11-14T16:53:04;114.65;;;54.13;;
25381;SDS011;16307;42.896;20.874;2022-11-14T16:56:10;124.80;;;57.95;;
25381;SDS011;16307;42.896;20.874;2022-11-14T16:59:16;119.70;;;59.15;;
25381;SDS011;16307;42.896;20.874;2022-11-14T17:02:21;132.27;;;63.45;;
25381;SDS011;16307;42.896;20.874;2022-11-14T17:05:26;130.80;;;61.00;;
25381;SDS011;16307;42.896;20.874;2022-11-14T17:08:31;145.40;;;63.38;;
25381;SDS011;16307;42.896;20.874;2022-11-14T17:11:36;134.02;;;63.83;;
25381;SDS011;16307;42.896;20.874;2022-11-14T17:14:42;111.30;;;49.97;;
25381;SDS011;16307;42.896;20.874;2022-11-14T17:17:47;107.15;;;50.47;;
25381;SDS011;16307;42.896;20.874;2022-11-14T17:20:53;114.85;;;54.58;;
25381;SDS011;16307;42.896;20.874;2022-11-14T17:23:59;114.22;;;56.28;;
25381;SDS011;16307;42.896;20.874;2022-11-14T17:27:07;116.00;;;53.75;;
25381;SDS011;16307;42.896;20.874;2022-11-14T17:30:12;114.63;;;57.10;;
25381;SDS011;16307;42.896;20.874;2022-11-14T17:33:17;132.20;;;63.70;;
25381;SDS011;16307;42.896;20.874;2022-11-14T17:36:22;143.93;;;64.40;;
25381;SDS011;16307;42.896;20.874;2022-11-14T17:39:29;135.23;;;63.75;;
25381;SDS011;16307;42.896;20.874;2022-11-14T17:42:34;136.20;;;61.15;;
25381;SDS011;16307;42.896;20.874;2022-11-14T17:45:39;126.13;;;56.97;;
25381;SDS011;16307;42.896;20.874;2022-11-14T17:48:45;122.00;;;55.97;;
25381;SDS011;16307;42.896;20.874;2022-11-14T17:51:50;114.10;;;56.28;;
25381;SDS011;16307;42.896;20.874;2022-11-14T17:54:54;134.48;;;62.53;;
25381;SDS011;16307;42.896;20.874;2022-11-14T17:57:59;128.57;;;57.88;;
25381;SDS011;16307;42.896;20.874;2022-11-14T18:01:07;108.03;;;52.40;;
25381;SDS011;16307;42.896;20.874;2022-11-14T18:04:16;108.55;;;52.65;;
25381;SDS011;16307;42.896;20.874;2022-11-14T18:07:21;109.55;;;51.30;;
25381;SDS011;16307;42.896;20.874;2022-11-14T18:10:26;102.90;;;50.88;;
25381;SDS011;16307;42.896;20.874;2022-11-14T18:13:31;98.03;;;48.03;;
25381;SDS011;16307;42.896;20.874;2022-11-14T18:16:36;105.90;;;53.70;;
25381;SDS011;16307;42.896;20.874;2022-11-14T18:20:01;105.03;;;52.53;;
25381;SDS011;16307;42.896;20.874;2022-11-14T18:23:06;103.82;;;52.28;;
25381;SDS011;16307;42.896;20.874;2022-11-14T18:26:12;100.32;;;50.38;;
25381;SDS011;16307;42.896;20.874;2022-11-14T18:29:20;101.95;;;49.67;;
25381;SDS011;16307;42.896;20.874;2022-11-14T18:32:25;117.40;;;54.13;;
25381;SDS011;16307;42.896;20.874;2022-11-14T18:35:30;114.88;;;58.15;;
25381;SDS011;16307;42.896;20.874;2022-11-14T18:38:34;120.57;;;58.78;;
25381;SDS011;16307;42.896;20.874;2022-11-14T18:41:40;109.38;;;54.00;;
25381;SDS011;16307;42.896;20.874;2022-11-14T18:44:44;111.25;;;55.38;;
25381;SDS011;16307;42.896;20.874;2022-11-14T18:47:49;103.30;;;51.72;;
25381;SDS011;16307;42.896;20.874;2022-11-14T18:50:59;100.18;;;47.90;;
25381;SDS011;16307;42.896;20.874;2022-11-14T18:54:11;109.18;;;51.78;;
25381;SDS011;16307;42.896;20.874;2022-11-14T18:57:17;109.75;;;54.00;;
25381;SDS011;16307;42.896;20.874;2022-11-14T19:00:22;113.80;;;54.42;;
25381;SDS011;16307;42.896;20.874;2022-11-14T19:03:27;108.03;;;49.20;;
25381;SDS011;16307;42.896;20.874;2022-11-14T19:06:34;105.93;;;51.20;;
25381;SDS011;16307;42.896;20.874;2022-11-14T19:09:39;119.63;;;51.40;;
25381;SDS011;16307;42.896;20.874;2022-11-14T19:12:47;104.25;;;49.83;;
25381;SDS011;16307;42.896;20.874;2022-11-14T19:15:52;119.72;;;48.17;;
25381;SDS011;16307;42.896;20.874;2022-11-14T19:18:57;105.25;;;48.45;;
25381;SDS011;16307;42.896;20.874;2022-11-14T19:22:02;110.82;;;51.88;;
25381;SDS011;16307;42.896;20.874;2022-11-14T19:25:07;112.97;;;51.85;;
25381;SDS011;16307;42.896;20.874;2022-11-14T19:28:12;103.28;;;51.80;;
25381;SDS011;16307;42.896;20.874;2022-11-14T19:31:17;107.35;;;52.45;;
25381;SDS011;16307;42.896;20.874;2022-11-14T19:34:23;123.72;;;59.90;;